createdAt,value
2022-12-14T00:21:08.053Z,47
2022-12-14T00:49:25.042Z,46
2022-12-14T01:17:40.761Z,48
2022-12-14T01:46:40.503Z,49
2022-12-14T02:15:20.738Z,50
2022-12-14T02:44:12.442Z,52
2022-12-14T03:12:59.519Z,49
2022-12-14T03:41:49.373Z,50
2022-12-14T04:10:04.462Z,50
2022-12-14T04:38:59.360Z,52
2022-12-14T05:07:27.385Z,55
2022-12-14T05:35:45.578Z,55
2022-12-14T06:03:59.159Z,53
2022-12-14T06:32:41.963Z,56
2022-12-14T07:01:50.743Z,56
2022-12-14T07:30:20.679Z,58
2022-12-14T07:59:27.829Z,58
2022-12-14T08:28:18.950Z,58
2022-12-14T08:57:11.157Z,55
2022-12-14T09:26:11.119Z,55
2022-12-14T09:55:05.333Z,48
2022-12-14T10:23:53.649Z,41
2022-12-14T10:52:40.437Z,50
2022-12-14T11:21:29.652Z,49
2022-12-14T11:50:36.393Z,56
2022-12-14T12:19:39.012Z,56
2022-12-14T12:48:34.287Z,63
2022-12-14T13:17:27.755Z,59
2022-12-14T13:46:21.370Z,59
2022-12-14T14:15:03.934Z,58
2022-12-14T14:43:55.915Z,59
2022-12-14T15:12:43.042Z,61
2022-12-14T15:41:37.601Z,59
2022-12-14T16:09:55.616Z,59
2022-12-14T16:38:11.439Z,61
2022-12-14T17:07:06.090Z,50
2022-12-14T17:36:01.525Z,50
2022-12-14T18:04:57.159Z,47
2022-12-14T18:33:36.730Z,50
2022-12-14T19:02:33.869Z,52
2022-12-14T19:31:05.293Z,52
2022-12-14T19:59:41.530Z,56
2022-12-14T20:28:34.386Z,52
2022-12-14T20:57:27.765Z,52
2022-12-14T21:26:19.079Z,48
2022-12-14T21:55:12.602Z,53
2022-12-14T22:24:09.160Z,53
2022-12-14T22:52:56.961Z,53
2022-12-14T23:21:42.743Z,53
2022-12-14T23:49:55.748Z,50
